createdAt,value
2017-12-30T00:01:53.487Z,2.70
2017-12-30T00:04:19.795Z,2.70
2017-12-30T00:06:46.076Z,2.70
2017-12-30T00:09:12.373Z,2.70
2017-12-30T00:11:38.636Z,2.70
2017-12-30T00:14:04.955Z,2.80
2017-12-30T00:16:32.026Z,2.80
2017-12-30T00:18:58.336Z,2.80
2017-12-30T00:21:24.664Z,2.70
2017-12-30T00:23:51.824Z,2.60
2017-12-30T00:26:18.117Z,2.60
2017-12-30T00:28:44.420Z,2.60
2017-12-30T00:31:10.757Z,2.60
2017-12-30T00:33:37.020Z,2.50
2017-12-30T00:36:03.366Z,2.40
2017-12-30T00:38:29.691Z,2.40
2017-12-30T00:40:56.743Z,2.40
2017-12-30T00:43:23.783Z,2.40
2017-12-30T00:45:50.185Z,2.40
2017-12-30T00:48:16.512Z,2.40
2017-12-30T00:50:42.760Z,2.50
2017-12-30T00:53:09.047Z,2.50
2017-12-30T00:55:35.374Z,2.50
2017-12-30T00:58:01.683Z,2.60
2017-12-30T01:00:28.020Z,2.50
2017-12-30T01:02:54.373Z,2.60
2017-12-30T01:05:20.642Z,2.60
2017-12-30T01:07:46.983Z,2.60
2017-12-30T01:10:14.079Z,2.70
2017-12-30T01:12:41.153Z,2.70
2017-12-30T01:15:07.426Z,2.70
2017-12-30T01:17:34.464Z,2.60
2017-12-30T01:20:01.582Z,2.70
2017-12-30T01:22:27.882Z,2.70
2017-12-30T01:24:54.348Z,2.70
2017-12-30T01:27:20.833Z,2.80
2017-12-30T01:29:47.104Z,2.80
2017-12-30T01:32:13.394Z,2.70
2017-12-30T01:34:39.672Z,2.80
2017-12-30T01:37:05.958Z,2.80
2017-12-30T01:39:32.299Z,2.80
2017-12-30T01:41:58.641Z,2.80
2017-12-30T01:44:24.945Z,2.90
2017-12-30T01:46:51.263Z,2.90
2017-12-30T01:49:17.535Z,2.90
2017-12-30T01:51:44.054Z,2.80
2017-12-30T01:54:10.316Z,2.90
2017-12-30T01:56:36.610Z,2.90
2017-12-30T01:59:03.059Z,2.90
2017-12-30T02:01:29.576Z,2.90
2017-12-30T02:03:56.107Z,3.00
2017-12-30T02:06:22.411Z,3.00
2017-12-30T02:08:49.466Z,3.10
2017-12-30T02:11:15.750Z,3.10
2017-12-30T02:13:42.047Z,3.10
2017-12-30T02:16:08.326Z,3.10
2017-12-30T02:18:35.332Z,3.10
2017-12-30T02:21:01.687Z,3.00
2017-12-30T02:23:27.970Z,3.10
2017-12-30T02:25:54.495Z,3.20
2017-12-30T02:28:20.761Z,3.20
2017-12-30T02:30:47.098Z,3.20
2017-12-30T02:33:13.415Z,3.20
2017-12-30T02:35:39.735Z,3.10
2017-12-30T02:38:06.111Z,3.10
2017-12-30T02:40:32.398Z,3.10
2017-12-30T02:42:58.665Z,3.10
2017-12-30T02:45:24.991Z,3.00
2017-12-30T02:47:51.350Z,3.00
2017-12-30T02:50:17.741Z,3.00
2017-12-30T02:52:44.037Z,3.10
2017-12-30T02:55:10.592Z,3.10
2017-12-30T02:57:36.860Z,3.20
2017-12-30T03:00:03.195Z,3.20
2017-12-30T03:02:29.562Z,3.30
2017-12-30T03:04:55.889Z,3.40
2017-12-30T03:07:22.931Z,3.50
2017-12-30T03:09:49.254Z,3.50
2017-12-30T03:12:16.332Z,3.50
2017-12-30T03:14:42.706Z,3.50
2017-12-30T03:17:08.984Z,3.50
2017-12-30T03:19:35.272Z,3.40
2017-12-30T03:22:01.580Z,3.40
2017-12-30T03:24:27.949Z,3.40
2017-12-30T03:26:55.057Z,3.40
2017-12-30T03:29:21.359Z,3.40
2017-12-30T03:31:47.639Z,3.40
2017-12-30T03:34:13.954Z,3.50
2017-12-30T03:36:40.222Z,3.50
2017-12-30T03:39:06.546Z,3.60
2017-12-30T03:41:32.808Z,3.60
2017-12-30T03:43:59.161Z,3.60
2017-12-30T03:46:25.461Z,3.70
2017-12-30T03:48:51.722Z,3.70
2017-12-30T03:51:18.061Z,3.70
2017-12-30T03:53:44.371Z,3.70
2017-12-30T03:56:10.691Z,3.80
2017-12-30T03:58:36.980Z,3.80
2017-12-30T04:01:03.262Z,3.80
2017-12-30T04:03:29.591Z,3.80
2017-12-30T04:05:55.884Z,3.90
2017-12-30T04:08:22.941Z,3.90
2017-12-30T04:10:49.992Z,4.00
2017-12-30T04:13:16.272Z,4.00
2017-12-30T04:15:42.670Z,4.00
2017-12-30T04:18:08.938Z,4.00
2017-12-30T04:20:35.330Z,4.00
2017-12-30T04:23:01.606Z,4.10
2017-12-30T04:25:28.488Z,4.10
2017-12-30T04:27:54.787Z,4.20
2017-12-30T04:30:21.097Z,4.10
2017-12-30T04:32:47.410Z,4.20
2017-12-30T04:35:13.678Z,4.20
2017-12-30T04:37:39.945Z,4.20
2017-12-30T04:40:06.284Z,4.20
2017-12-30T04:42:32.566Z,4.30
2017-12-30T04:44:59.614Z,4.30
2017-12-30T04:47:25.894Z,4.30
2017-12-30T04:49:52.148Z,4.30
2017-12-30T04:52:19.132Z,4.40
2017-12-30T04:54:45.422Z,4.30
2017-12-30T04:57:11.724Z,4.50
2017-12-30T04:59:38.053Z,4.50
2017-12-30T05:02:04.372Z,4.40
2017-12-30T05:04:30.691Z,4.40
2017-12-30T05:09:30.679Z,4.50
2017-12-30T05:11:57.003Z,4.40
2017-12-30T05:14:23.249Z,4.40
2017-12-30T05:16:49.512Z,4.40
2017-12-30T05:19:15.787Z,4.40
2017-12-30T05:21:42.112Z,4.40
2017-12-30T05:24:08.364Z,4.40
2017-12-30T05:26:34.623Z,4.40
2017-12-30T05:29:00.958Z,4.50
2017-12-30T05:31:28.436Z,4.40
2017-12-30T05:33:54.703Z,4.50
2017-12-30T05:36:21.050Z,4.50
2017-12-30T05:38:47.360Z,4.40
2017-12-30T05:41:13.678Z,4.40
2017-12-30T05:43:39.998Z,4.40
2017-12-30T05:46:06.297Z,4.40
2017-12-30T05:48:32.642Z,4.40
2017-12-30T05:50:58.931Z,4.40
2017-12-30T05:53:25.300Z,4.40
2017-12-30T05:55:52.312Z,4.50
2017-12-30T05:58:18.567Z,4.50
2017-12-30T06:00:45.656Z,4.50
2017-12-30T06:03:11.940Z,4.50
2017-12-30T06:05:38.941Z,4.40
2017-12-30T06:08:05.222Z,4.40
2017-12-30T06:10:32.235Z,4.40
2017-12-30T06:12:58.489Z,4.30
2017-12-30T06:15:25.504Z,4.40
2017-12-30T06:17:51.844Z,4.40
2017-12-30T06:20:18.163Z,4.30
2017-12-30T06:22:44.444Z,4.30
2017-12-30T06:25:10.742Z,4.10
2017-12-30T06:27:37.054Z,4.10
2017-12-30T06:30:03.320Z,4.10
2017-12-30T06:32:30.326Z,4.00
2017-12-30T06:34:56.656Z,4.00
2017-12-30T06:37:22.963Z,4.00
2017-12-30T06:39:49.268Z,4.00
2017-12-30T06:42:15.672Z,4.00
2017-12-30T06:44:41.958Z,4.00
2017-12-30T06:47:08.258Z,3.90
2017-12-30T06:49:34.530Z,3.80
2017-12-30T06:52:00.828Z,3.60
2017-12-30T06:54:27.108Z,3.50
2017-12-30T06:56:53.427Z,3.50
2017-12-30T06:59:19.694Z,3.50
2017-12-30T07:01:46.033Z,3.50
2017-12-30T07:04:12.307Z,3.50
2017-12-30T07:06:38.596Z,3.60
2017-12-30T07:09:04.891Z,3.60
2017-12-30T07:11:31.210Z,3.60
2017-12-30T07:13:58.240Z,3.70
2017-12-30T07:16:24.523Z,3.70
2017-12-30T07:18:51.636Z,3.70
2017-12-30T07:21:17.892Z,3.60
2017-12-30T07:23:44.218Z,3.60
2017-12-30T07:26:10.528Z,3.60
2017-12-30T07:28:36.855Z,3.70
2017-12-30T07:31:03.124Z,3.80
2017-12-30T07:33:30.836Z,3.70
2017-12-30T07:35:57.106Z,3.70
2017-12-30T07:38:24.127Z,3.80
2017-12-30T07:40:50.409Z,3.70
2017-12-30T07:43:16.752Z,3.80
2017-12-30T07:45:43.043Z,3.80
2017-12-30T07:48:10.106Z,3.90
2017-12-30T07:50:37.148Z,3.90
2017-12-30T07:53:04.136Z,3.90
2017-12-30T07:55:30.417Z,3.90
2017-12-30T07:57:57.511Z,3.90
2017-12-30T08:00:23.771Z,3.90
2017-12-30T08:02:50.091Z,3.90
2017-12-30T08:05:16.544Z,3.90
2017-12-30T08:07:42.971Z,4.00
2017-12-30T08:10:09.391Z,4.00
2017-12-30T08:12:35.711Z,3.90
2017-12-30T08:15:02.048Z,4.00
2017-12-30T08:17:28.348Z,4.00
2017-12-30T08:19:54.716Z,4.00
2017-12-30T08:22:21.008Z,4.00
2017-12-30T08:24:47.393Z,4.00
2017-12-30T08:27:13.719Z,4.00
2017-12-30T08:29:40.004Z,4.10
2017-12-30T08:32:06.372Z,4.10
2017-12-30T08:34:32.661Z,4.10
2017-12-30T08:36:58.978Z,4.10
2017-12-30T08:39:25.237Z,4.20
2017-12-30T08:41:51.534Z,4.10
2017-12-30T08:44:17.928Z,4.20
2017-12-30T08:46:44.278Z,4.20
2017-12-30T08:49:11.294Z,4.20
2017-12-30T08:51:37.567Z,4.20
2017-12-30T08:54:04.246Z,4.30
2017-12-30T08:56:30.555Z,4.30
2017-12-30T08:58:56.835Z,4.30
2017-12-30T09:01:23.168Z,4.30
2017-12-30T09:03:49.452Z,4.30
2017-12-30T09:06:15.828Z,4.30
2017-12-30T09:08:42.081Z,4.30
2017-12-30T09:11:09.158Z,4.40
2017-12-30T09:13:35.488Z,4.40
2017-12-30T09:16:01.770Z,4.30
2017-12-30T09:18:28.031Z,4.30
2017-12-30T09:20:54.322Z,4.30
2017-12-30T09:23:20.629Z,4.30
2017-12-30T09:25:46.959Z,4.40
2017-12-30T09:28:13.295Z,4.30
2017-12-30T09:30:39.572Z,4.40
2017-12-30T09:33:06.683Z,4.40
2017-12-30T09:35:33.023Z,4.40
2017-12-30T09:37:59.287Z,4.50
2017-12-30T09:40:25.599Z,4.50
2017-12-30T09:42:52.704Z,4.50
2017-12-30T09:45:19.044Z,4.50
2017-12-30T09:47:45.405Z,4.50
2017-12-30T09:50:11.716Z,4.50
2017-12-30T09:52:38.009Z,4.40
2017-12-30T09:55:04.504Z,4.50
2017-12-30T09:57:30.795Z,4.50
2017-12-30T09:59:57.116Z,4.50
2017-12-30T10:02:23.730Z,4.50
2017-12-30T10:04:50.019Z,4.50
2017-12-30T10:07:16.501Z,4.50
2017-12-30T10:09:42.878Z,4.60
2017-12-30T10:12:09.297Z,4.60
2017-12-30T10:14:36.557Z,4.50
2017-12-30T10:17:02.903Z,4.50
2017-12-30T10:19:29.288Z,4.40
2017-12-30T10:21:55.677Z,4.30
2017-12-30T10:24:21.974Z,4.30
2017-12-30T10:26:48.366Z,4.30
2017-12-30T10:29:14.833Z,4.20
2017-12-30T10:31:41.096Z,4.20
2017-12-30T10:34:08.165Z,4.30
2017-12-30T10:36:34.468Z,4.30
2017-12-30T10:39:00.847Z,4.40
2017-12-30T11:31:07.348Z,4.40
2017-12-30T11:33:33.756Z,3.90
2017-12-30T11:36:00.119Z,3.90
2017-12-30T11:38:26.629Z,4.00
2017-12-30T11:40:53.011Z,4.00
2017-12-30T11:43:19.307Z,3.90
2017-12-30T11:45:46.333Z,4.00
2017-12-30T11:48:12.620Z,4.00
2017-12-30T11:50:38.935Z,4.00
2017-12-30T11:53:05.239Z,4.00
2017-12-30T11:55:31.573Z,4.00
2017-12-30T11:57:57.874Z,4.10
2017-12-30T12:00:24.237Z,4.00
2017-12-30T12:02:50.525Z,4.10
2017-12-30T12:05:17.518Z,4.20
2017-12-30T12:07:43.800Z,4.20
2017-12-30T12:10:10.050Z,4.20
2017-12-30T12:12:37.070Z,4.30
2017-12-30T12:15:03.319Z,4.30
2017-12-30T12:17:30.326Z,4.20
2017-12-30T12:19:57.358Z,4.20
2017-12-30T12:22:23.729Z,4.20
2017-12-30T12:24:50.038Z,4.20
2017-12-30T12:27:16.357Z,4.30
2017-12-30T12:29:42.626Z,4.30
2017-12-30T12:32:09.025Z,4.30
2017-12-30T12:34:35.318Z,4.40
2017-12-30T12:37:01.630Z,4.40
2017-12-30T12:39:28.663Z,4.50
2017-12-30T12:41:55.699Z,4.50
2017-12-30T12:44:22.768Z,4.50
2017-12-30T12:46:49.774Z,4.50
2017-12-30T12:49:16.124Z,4.50
2017-12-30T12:51:42.391Z,4.50
2017-12-30T12:54:08.716Z,4.50
2017-12-30T12:56:34.997Z,4.50
2017-12-30T12:59:01.324Z,4.40
2017-12-30T13:01:27.594Z,4.40
2017-12-30T13:03:53.892Z,4.40
2017-12-30T13:06:20.146Z,4.50
2017-12-30T13:08:47.163Z,4.50
2017-12-30T13:11:13.441Z,4.50
2017-12-30T13:13:39.740Z,4.50
2017-12-30T13:16:06.006Z,4.60
2017-12-30T13:18:32.299Z,4.60
2017-12-30T13:20:59.343Z,4.70
2017-12-30T13:23:25.668Z,4.60
2017-12-30T13:25:51.966Z,4.60
2017-12-30T13:28:18.269Z,4.60
2017-12-30T13:30:44.564Z,4.60
2017-12-30T13:33:10.826Z,4.70
2017-12-30T13:35:37.179Z,4.60
2017-12-30T13:38:03.468Z,4.60
2017-12-30T13:40:30.490Z,4.70
2017-12-30T13:42:56.767Z,4.70
2017-12-30T13:45:23.046Z,4.70
2017-12-30T13:47:49.309Z,4.80
2017-12-30T13:50:16.325Z,4.80
2017-12-30T13:52:42.594Z,4.80
2017-12-30T13:55:08.872Z,4.80
2017-12-30T13:57:35.210Z,4.80
2017-12-30T14:00:01.458Z,4.80
2017-12-30T14:02:27.701Z,4.80
2017-12-30T14:04:54.712Z,4.80
2017-12-30T14:07:20.990Z,4.80
2017-12-30T14:09:47.272Z,4.80
2017-12-30T14:12:13.533Z,4.90
2017-12-30T14:14:39.837Z,5.00
2017-12-30T14:17:06.113Z,5.00
2017-12-30T14:19:32.420Z,5.00
2017-12-30T14:21:59.807Z,5.10
2017-12-30T14:24:26.071Z,5.10
2017-12-30T14:26:52.323Z,5.10
2017-12-30T14:29:18.595Z,5.30
2017-12-30T14:31:44.878Z,5.30
2017-12-30T14:34:11.147Z,5.20
2017-12-30T14:36:37.419Z,5.30
2017-12-30T14:39:03.714Z,5.30
2017-12-30T14:41:29.978Z,5.50
2017-12-30T14:43:56.269Z,5.60
2017-12-30T14:46:22.540Z,5.60
2017-12-30T14:48:48.815Z,5.70
2017-12-30T14:51:15.140Z,5.70
2017-12-30T14:53:41.399Z,5.80
2017-12-30T14:56:07.685Z,5.80
2017-12-30T14:58:34.685Z,6.00
2017-12-30T15:01:00.988Z,6.00
2017-12-30T15:03:27.244Z,6.00
2017-12-30T15:05:53.534Z,6.00
2017-12-30T15:08:19.806Z,6.10
2017-12-30T15:10:46.157Z,6.10
2017-12-30T15:13:12.426Z,6.20
2017-12-30T15:15:38.734Z,6.30
2017-12-30T15:18:05.732Z,6.40
2017-12-30T15:20:32.776Z,6.40
2017-12-30T15:22:59.027Z,6.40
2017-12-30T15:25:25.382Z,6.50
2017-12-30T15:27:51.689Z,6.50
2017-12-30T15:30:17.992Z,6.50
2017-12-30T15:32:44.268Z,6.50
2017-12-30T15:35:10.548Z,6.60
2017-12-30T15:37:36.786Z,6.60
2017-12-30T15:40:03.136Z,6.50
2017-12-30T15:42:29.415Z,6.50
2017-12-30T15:44:55.717Z,6.60
2017-12-30T15:47:21.990Z,6.60
2017-12-30T15:49:48.299Z,6.60
2017-12-30T15:52:14.702Z,6.70
2017-12-30T15:54:41.028Z,6.70
2017-12-30T15:57:07.461Z,6.80
2017-12-30T15:59:33.788Z,6.80
2017-12-30T16:02:00.249Z,6.90
2017-12-30T16:04:27.641Z,7.00
2017-12-30T16:06:54.168Z,7.10
2017-12-30T16:09:20.498Z,7.20
2017-12-30T16:11:47.646Z,7.90
2017-12-30T16:14:14.191Z,7.80
2017-12-30T16:16:40.571Z,8.10
2017-12-30T16:19:06.946Z,8.40
2017-12-30T16:21:33.395Z,8.50
2017-12-30T16:23:59.983Z,8.60
2017-12-30T16:26:26.408Z,8.80
2017-12-30T16:28:52.695Z,8.90
2017-12-30T16:31:19.004Z,9.00
2017-12-30T16:33:45.330Z,9.10
2017-12-30T16:36:11.654Z,9.20
2017-12-30T16:38:37.944Z,9.40
2017-12-30T16:41:04.444Z,9.40
2017-12-30T16:43:30.881Z,9.40
2017-12-30T16:45:57.262Z,9.60
2017-12-30T16:48:23.583Z,9.60
2017-12-30T16:50:49.904Z,9.70
2017-12-30T16:53:16.142Z,9.70
2017-12-30T16:55:42.414Z,9.70
2017-12-30T16:58:08.679Z,9.70
2017-12-30T17:00:35.000Z,9.70
2017-12-30T17:03:01.551Z,9.70
2017-12-30T17:05:27.847Z,9.70
2017-12-30T17:07:54.096Z,9.70
2017-12-30T17:10:20.371Z,9.80
2017-12-30T17:12:47.369Z,9.90
2017-12-30T17:15:13.639Z,9.80
2017-12-30T17:17:39.890Z,9.90
2017-12-30T17:20:06.931Z,9.90
2017-12-30T17:22:33.929Z,10.00
2017-12-30T17:25:00.214Z,10.00
2017-12-30T17:27:27.259Z,10.00
2017-12-30T17:29:53.584Z,10.00
2017-12-30T17:32:20.573Z,9.90
2017-12-30T17:34:46.859Z,9.90
2017-12-30T17:37:13.115Z,10.00
2017-12-30T17:39:39.375Z,10.00
2017-12-30T17:42:05.750Z,10.00
2017-12-30T17:44:32.747Z,9.90
2017-12-30T17:46:59.038Z,9.80
2017-12-30T17:49:25.316Z,9.80
2017-12-30T17:51:51.608Z,9.80
2017-12-30T17:54:17.904Z,9.70
2017-12-30T17:56:44.940Z,9.70
2017-12-30T17:59:11.199Z,9.60
2017-12-30T18:01:38.233Z,9.60
2017-12-30T18:04:05.273Z,9.60
2017-12-30T18:06:31.637Z,9.50
2017-12-30T18:08:57.884Z,9.60
2017-12-30T18:11:24.178Z,9.60
2017-12-30T18:13:50.446Z,9.60
2017-12-30T18:16:16.709Z,9.70
2017-12-30T18:18:43.031Z,9.70
2017-12-30T18:21:09.320Z,9.70
2017-12-30T18:23:35.590Z,9.70
2017-12-30T18:26:01.866Z,9.80
2017-12-30T18:28:28.144Z,9.80
2017-12-30T18:30:54.445Z,9.80
2017-12-30T18:33:21.482Z,9.60
2017-12-30T18:35:47.735Z,9.60
2017-12-30T18:41:06.101Z,9.50
2017-12-30T18:43:32.394Z,9.50
2017-12-30T18:45:58.728Z,9.50
2017-12-30T18:48:25.019Z,9.50
2017-12-30T18:50:51.387Z,9.50
2017-12-30T18:53:17.714Z,9.50
2017-12-30T18:55:44.736Z,9.40
2017-12-30T18:58:11.036Z,9.40
2017-12-30T19:00:37.329Z,9.40
2017-12-30T19:03:03.638Z,9.50
2017-12-30T19:05:30.622Z,9.60
2017-12-30T19:07:56.907Z,9.50
2017-12-30T19:10:23.909Z,9.60
2017-12-30T19:12:50.195Z,9.60
2017-12-30T19:15:17.226Z,9.40
2017-12-30T19:17:43.600Z,9.40
2017-12-30T19:20:09.870Z,9.30
2017-12-30T19:22:36.142Z,9.20
2017-12-30T19:25:02.421Z,9.30
2017-12-30T19:27:28.753Z,9.30
2017-12-30T19:29:55.057Z,9.30
2017-12-30T19:32:21.341Z,9.30
2017-12-30T19:34:48.398Z,9.50
2017-12-30T19:37:15.453Z,9.60
2017-12-30T19:39:41.695Z,9.60
2017-12-30T19:42:07.951Z,9.70
2017-12-30T19:44:34.252Z,9.70
2017-12-30T19:47:00.503Z,9.60
2017-12-30T19:49:26.799Z,9.50
2017-12-30T19:51:53.042Z,9.30
2017-12-30T19:54:19.391Z,9.20
2017-12-30T19:56:45.658Z,9.10
2017-12-30T19:59:11.941Z,8.90
2017-12-30T20:01:38.191Z,8.80
2017-12-30T20:04:04.464Z,8.80
2017-12-30T20:06:31.531Z,8.70
2017-12-30T20:08:57.801Z,8.70
2017-12-30T20:11:24.058Z,8.70
2017-12-30T20:13:50.323Z,8.70
2017-12-30T20:16:16.621Z,8.80
2017-12-30T20:18:43.672Z,8.70
2017-12-30T20:21:10.731Z,8.80
2017-12-30T20:23:37.056Z,8.80
2017-12-30T20:26:04.067Z,8.70
2017-12-30T20:28:30.369Z,8.70
2017-12-30T20:30:56.665Z,8.80
2017-12-30T20:33:23.017Z,8.70
2017-12-30T20:35:49.293Z,8.70
2017-12-30T20:38:15.578Z,8.80
2017-12-30T20:40:41.928Z,8.80
2017-12-30T20:43:08.187Z,8.90
2017-12-30T20:45:34.518Z,8.90
2017-12-30T20:48:00.742Z,8.90
2017-12-30T20:50:27.060Z,8.90
2017-12-30T20:52:53.341Z,8.90
2017-12-30T20:55:19.643Z,8.90
2017-12-30T20:57:45.939Z,8.50
2017-12-30T21:00:12.244Z,8.10
2017-12-30T21:02:38.490Z,8.00
2017-12-30T21:05:04.795Z,7.90
2017-12-30T21:07:31.073Z,7.80
2017-12-30T21:09:57.416Z,7.80
2017-12-30T21:12:23.726Z,7.80
2017-12-30T21:14:49.983Z,7.70
2017-12-30T21:17:16.341Z,7.60
2017-12-30T21:19:42.700Z,7.60
2017-12-30T21:22:08.955Z,7.60
2017-12-30T21:24:35.304Z,7.50
2017-12-30T21:27:01.574Z,7.60
2017-12-30T21:29:27.863Z,7.50
2017-12-30T21:31:54.106Z,7.50
2017-12-30T21:34:21.105Z,7.40
2017-12-30T21:36:47.394Z,7.40
2017-12-30T21:39:14.489Z,7.40
2017-12-30T21:41:41.678Z,7.40
2017-12-30T21:44:08.013Z,7.40
2017-12-30T21:46:35.042Z,7.40
2017-12-30T21:49:01.315Z,7.40
2017-12-30T21:51:27.681Z,7.40
2017-12-30T21:53:53.981Z,7.40
2017-12-30T21:56:20.295Z,7.50
2017-12-30T21:58:46.604Z,7.50
2017-12-30T22:01:13.624Z,7.50
2017-12-30T22:03:39.905Z,7.50
2017-12-30T22:06:06.217Z,7.50
2017-12-30T22:08:32.488Z,7.50
2017-12-30T22:10:58.800Z,7.60
2017-12-30T22:13:25.045Z,7.80
2017-12-30T22:15:51.602Z,7.70
2017-12-30T22:18:18.635Z,7.70
2017-12-30T22:20:45.202Z,7.70
2017-12-30T22:23:11.475Z,7.70
2017-12-30T22:25:37.763Z,7.70
2017-12-30T22:28:04.057Z,7.70
2017-12-30T22:30:30.362Z,7.70
2017-12-30T22:32:56.625Z,7.70
2017-12-30T22:35:22.891Z,7.70
2017-12-30T22:37:49.147Z,7.70
2017-12-30T22:40:15.435Z,7.80
2017-12-30T22:42:41.706Z,7.80
2017-12-30T22:45:08.012Z,7.70
2017-12-30T22:47:34.280Z,7.70
2017-12-30T22:50:00.552Z,7.70
2017-12-30T22:52:27.588Z,7.70
2017-12-30T22:54:53.885Z,7.70
2017-12-30T22:57:20.138Z,7.70
2017-12-30T22:59:46.421Z,7.70
2017-12-30T23:02:12.728Z,7.70
2017-12-30T23:04:39.768Z,7.70
2017-12-30T23:07:06.231Z,7.70
2017-12-30T23:09:33.292Z,7.80
2017-12-30T23:11:59.594Z,7.80
2017-12-30T23:14:26.616Z,7.80
2017-12-30T23:16:52.958Z,7.80
2017-12-30T23:19:19.247Z,7.90
2017-12-30T23:21:45.537Z,8.00
2017-12-30T23:24:12.577Z,8.00
2017-12-30T23:26:39.610Z,8.00
2017-12-30T23:29:05.891Z,8.00
2017-12-30T23:31:32.187Z,8.00
2017-12-30T23:33:59.205Z,8.10
2017-12-30T23:36:25.497Z,8.00
2017-12-30T23:38:51.809Z,8.10
2017-12-30T23:41:18.188Z,8.10
2017-12-30T23:43:44.455Z,8.20
2017-12-30T23:46:11.520Z,8.30
2017-12-30T23:48:37.815Z,8.20
2017-12-30T23:51:04.079Z,8.30
2017-12-30T23:53:30.388Z,8.30
2017-12-30T23:55:57.474Z,8.20
2017-12-30T23:58:24.489Z,8.30
